createdAt,value
2019-03-10T00:00:23.598Z,98709.24
2019-03-10T00:02:53.195Z,98708.17
2019-03-10T00:05:22.727Z,98679.16
2019-03-10T00:07:52.950Z,98717.25
2019-03-10T00:10:22.604Z,98732.52
2019-03-10T00:12:52.345Z,98729.47
2019-03-10T00:15:22.936Z,98737.91
2019-03-10T00:17:52.926Z,98726.77
2019-03-10T00:20:23.180Z,98720.70
2019-03-10T00:22:52.590Z,98701.97
2019-03-10T00:25:21.705Z,98725.54
2019-03-10T00:27:51.808Z,98718.02
2019-03-10T00:30:21.853Z,98731.52
2019-03-10T00:32:51.470Z,98722.28
2019-03-10T00:35:21.287Z,98713.62
2019-03-10T00:37:51.241Z,98708.53
2019-03-10T00:40:33.127Z,98707.30
2019-03-10T00:46:19.802Z,98721.52
2019-03-10T00:51:12.878Z,98712.74
2019-03-10T00:53:42.495Z,98700.05
2019-03-10T00:56:12.518Z,98696.42
2019-03-10T00:58:42.257Z,98697.50
2019-03-10T01:01:11.822Z,98677.17
2019-03-10T01:03:42.025Z,98703.88
2019-03-10T01:06:12.048Z,98699.25
2019-03-10T01:08:42.063Z,98686.37
2019-03-10T01:11:12.009Z,98699.17
2019-03-10T01:13:43.316Z,98702.86
2019-03-10T01:16:13.385Z,98703.69
2019-03-10T01:18:44.014Z,98715.92
2019-03-10T01:21:13.595Z,98716.84
2019-03-10T01:23:43.587Z,98684.88
2019-03-10T01:26:13.478Z,98708.62
2019-03-10T01:28:43.473Z,98694.78
2019-03-10T01:31:19.326Z,98691.02
2019-03-10T01:36:10.694Z,98687.86
2019-03-10T01:38:40.686Z,98676.34
2019-03-10T01:41:09.827Z,98651.45
2019-03-10T01:43:39.854Z,98646.47
2019-03-10T01:46:09.994Z,98666.41
2019-03-10T01:48:39.890Z,98658.58
2019-03-10T01:51:09.591Z,98653.91
2019-03-10T01:53:39.466Z,98649.36
2019-03-10T01:56:09.450Z,98658.27
2019-03-10T01:58:39.182Z,98659.83
2019-03-10T02:01:08.882Z,98659.19
2019-03-10T02:03:39.014Z,98660.66
2019-03-10T02:06:08.562Z,98659.19
2019-03-10T02:08:38.397Z,98648.95
2019-03-10T02:11:08.061Z,98632.81
2019-03-10T02:13:39.081Z,98639.18
2019-03-10T02:16:08.963Z,98553.30
2019-03-10T02:18:38.859Z,98630.48
2019-03-10T02:21:08.591Z,98630.69
2019-03-10T02:23:38.602Z,98620.66
2019-03-10T02:26:08.600Z,98588.12
2019-03-10T02:28:38.373Z,98607.73
2019-03-10T02:31:08.506Z,98545.66
2019-03-10T02:33:38.199Z,98599.44
2019-03-10T02:38:31.744Z,98594.62
2019-03-10T02:41:01.483Z,98577.85
2019-03-10T02:43:31.469Z,98591.91
2019-03-10T02:46:02.168Z,98508.54
2019-03-10T02:48:33.262Z,98577.55
2019-03-10T02:51:03.941Z,98572.66
2019-03-10T02:53:34.066Z,98573.40
2019-03-10T02:56:03.559Z,98539.90
2019-03-10T02:58:33.513Z,98522.64
2019-03-10T03:01:03.657Z,98564.23
2019-03-10T03:03:34.475Z,98550.53
2019-03-10T03:06:04.740Z,98546.30
2019-03-10T03:08:34.790Z,98527.83
2019-03-10T03:11:04.869Z,98516.67
2019-03-10T03:13:35.177Z,98499.32
2019-03-10T03:16:05.016Z,98512.78
2019-03-10T03:18:35.169Z,98482.07
2019-03-10T03:21:05.549Z,98499.55
2019-03-10T03:23:35.038Z,98455.05
2019-03-10T03:26:04.296Z,98470.94
2019-03-10T03:28:34.018Z,98467.19
2019-03-10T03:31:04.130Z,98440.66
2019-03-10T03:33:34.257Z,98501.02
2019-03-10T03:36:08.378Z,98492.85
2019-03-10T03:38:41.810Z,98450.34
2019-03-10T03:41:14.846Z,98485.09
2019-03-10T03:43:44.619Z,98487.39
2019-03-10T03:46:14.273Z,98463.39
2019-03-10T03:48:44.294Z,98469.31
2019-03-10T03:51:13.854Z,98454.53
2019-03-10T03:53:43.153Z,98465.34
2019-03-10T03:56:12.788Z,98405.80
2019-03-10T03:58:43.414Z,98450.84
2019-03-10T04:01:18.906Z,98418.59
2019-03-10T04:03:49.151Z,98432.68
2019-03-10T04:06:18.803Z,98427.53
2019-03-10T04:08:48.251Z,98430.07
2019-03-10T04:11:19.260Z,98419.00
2019-03-10T04:13:48.937Z,98414.46
2019-03-10T04:16:18.671Z,98392.81
2019-03-10T04:18:49.832Z,98376.45
2019-03-10T04:21:19.218Z,98413.39
2019-03-10T04:23:49.742Z,98409.23
2019-03-10T04:26:19.380Z,98411.35
2019-03-10T04:28:49.103Z,98413.13
2019-03-10T04:31:18.382Z,98377.22
2019-03-10T04:33:48.487Z,98411.48
2019-03-10T04:36:18.114Z,98399.28
2019-03-10T04:38:48.958Z,98395.13
2019-03-10T04:41:18.409Z,98392.72
2019-03-10T04:43:48.183Z,98386.62
2019-03-10T04:46:17.686Z,98385.53
2019-03-10T04:48:47.908Z,98369.94
2019-03-10T04:51:17.423Z,98382.17
2019-03-10T04:53:47.289Z,98376.50
2019-03-10T04:57:21.726Z,98376.12
2019-03-10T04:59:51.329Z,98378.06
2019-03-10T05:02:21.271Z,98378.67
2019-03-10T05:04:50.781Z,98365.23
2019-03-10T05:07:20.425Z,98363.84
2019-03-10T05:09:49.608Z,98359.91
2019-03-10T05:12:19.194Z,98351.86
2019-03-10T05:14:49.360Z,98341.92
2019-03-10T05:17:18.494Z,98342.70
2019-03-10T05:19:48.271Z,98317.98
2019-03-10T05:22:18.894Z,98311.80
2019-03-10T05:24:48.706Z,98330.58
2019-03-10T05:27:18.155Z,98302.01
2019-03-10T05:29:47.961Z,98282.80
2019-03-10T05:32:17.199Z,98274.50
2019-03-10T05:34:47.050Z,98313.98
2019-03-10T05:37:17.195Z,98301.66
2019-03-10T05:39:46.843Z,98292.70
2019-03-10T05:42:16.826Z,98294.91
2019-03-10T05:44:46.925Z,98266.49
2019-03-10T05:47:17.556Z,98280.67
2019-03-10T05:49:47.267Z,98267.22
2019-03-10T05:52:17.258Z,98222.88
2019-03-10T05:54:47.037Z,98256.23
2019-03-10T05:57:16.277Z,98248.77
2019-03-10T05:59:46.453Z,98244.11
2019-03-10T06:02:16.480Z,98242.42
2019-03-10T06:04:46.445Z,98248.06
2019-03-10T06:07:15.804Z,98247.31
2019-03-10T06:09:45.627Z,98243.00
2019-03-10T06:12:15.531Z,98231.80
2019-03-10T06:14:45.713Z,98235.47
2019-03-10T06:17:15.381Z,98232.70
2019-03-10T06:19:45.234Z,98228.17
2019-03-10T06:22:14.908Z,98224.66
2019-03-10T06:24:44.971Z,98212.81
2019-03-10T06:27:14.688Z,98213.59
2019-03-10T06:29:44.778Z,98273.09
2019-03-10T06:32:14.437Z,98207.28
2019-03-10T06:34:44.388Z,98213.81
2019-03-10T06:37:14.314Z,98203.35
2019-03-10T06:39:44.313Z,98206.50
2019-03-10T06:42:13.957Z,98194.66
2019-03-10T06:44:43.626Z,98195.82
2019-03-10T06:47:13.754Z,98195.36
2019-03-10T06:49:43.255Z,98196.40
2019-03-10T06:52:12.573Z,98196.11
2019-03-10T06:54:42.060Z,98177.60
2019-03-10T06:57:12.319Z,98175.96
2019-03-10T06:59:42.078Z,98168.05
2019-03-10T07:02:12.177Z,98158.59
2019-03-10T07:04:42.246Z,98160.00
2019-03-10T07:07:12.102Z,98102.27
2019-03-10T07:09:42.098Z,98184.52
2019-03-10T07:12:11.568Z,98135.70
2019-03-10T07:14:41.247Z,98130.17
2019-03-10T07:17:10.757Z,98094.63
2019-03-10T07:19:41.510Z,98119.36
2019-03-10T07:22:10.978Z,98100.99
2019-03-10T07:24:40.846Z,98119.81
2019-03-10T07:27:11.087Z,98110.19
2019-03-10T07:29:44.834Z,98107.20
2019-03-10T07:32:19.285Z,98067.47
2019-03-10T07:36:56.171Z,98101.44
2019-03-10T07:39:29.708Z,98050.74
2019-03-10T07:42:04.425Z,98094.84
2019-03-10T07:44:40.218Z,98087.55
2019-03-10T07:49:18.053Z,98068.56
2019-03-10T07:51:54.498Z,98049.91
2019-03-10T07:55:32.011Z,98060.62
2019-03-10T07:58:20.870Z,98060.78
2019-03-10T08:00:57.274Z,98044.28
2019-03-10T08:03:31.707Z,98043.55
2019-03-10T08:06:05.821Z,98035.92
2019-03-10T08:08:47.706Z,97989.95
2019-03-10T08:11:31.121Z,98015.66
2019-03-10T08:14:05.278Z,98033.64
2019-03-10T08:16:44.142Z,98006.31
2019-03-10T08:19:36.134Z,97942.69
2019-03-10T08:22:43.702Z,97993.58
2019-03-10T08:26:20.786Z,97980.41
2019-03-10T08:28:56.717Z,97977.55
2019-03-10T08:31:30.261Z,97928.73
2019-03-10T08:34:05.153Z,97958.52
2019-03-10T08:36:40.474Z,97942.25
2019-03-10T08:39:24.772Z,97942.61
2019-03-10T08:42:20.183Z,97941.30
2019-03-10T08:44:56.042Z,97929.77
2019-03-10T08:47:36.466Z,97921.05
2019-03-10T08:50:10.910Z,97916.58
2019-03-10T08:52:47.864Z,97888.04
2019-03-10T08:55:26.209Z,97908.09
2019-03-10T08:58:03.137Z,97801.98
2019-03-10T09:00:46.758Z,97811.19
2019-03-10T09:03:35.288Z,97875.50
2019-03-10T09:06:15.152Z,97850.97
2019-03-10T09:08:50.542Z,97833.78
2019-03-10T09:11:30.440Z,97835.31
2019-03-10T09:14:13.073Z,97815.06
2019-03-10T09:16:46.919Z,97807.41
2019-03-10T09:19:23.519Z,97802.77
2019-03-10T09:22:00.411Z,97683.95
2019-03-10T09:24:37.731Z,97753.00
2019-03-10T09:27:18.914Z,97742.70
2019-03-10T09:30:08.003Z,97767.41
2019-03-10T09:32:43.259Z,97713.50
2019-03-10T09:35:17.722Z,97755.66
2019-03-10T09:37:55.503Z,97721.39
2019-03-10T09:40:30.140Z,97724.92
2019-03-10T09:43:05.053Z,97728.81
2019-03-10T09:45:38.897Z,97720.55
2019-03-10T09:49:16.818Z,97641.20
2019-03-10T09:51:56.194Z,97634.62
2019-03-10T09:54:41.949Z,97681.23
2019-03-10T09:58:21.205Z,97691.81
2019-03-10T10:00:56.849Z,97668.42
2019-03-10T10:03:34.059Z,97659.36
2019-03-10T10:06:21.823Z,97535.30
2019-03-10T10:09:03.894Z,97562.28
2019-03-10T10:11:40.971Z,97642.66
2019-03-10T10:14:19.481Z,97649.39
2019-03-10T10:16:56.415Z,97601.34
2019-03-10T10:20:36.882Z,97634.72
2019-03-10T10:23:12.727Z,97644.95
2019-03-10T10:25:47.107Z,97618.03
2019-03-10T10:28:24.661Z,97608.50
2019-03-10T10:32:05.785Z,97534.84
2019-03-10T10:34:43.286Z,97606.76
2019-03-10T10:37:18.789Z,97593.94
2019-03-10T10:39:55.867Z,97583.86
2019-03-10T10:42:44.180Z,97582.72
2019-03-10T10:45:20.279Z,97569.84
2019-03-10T10:48:02.541Z,97394.09
2019-03-10T10:50:52.927Z,97563.02
2019-03-10T10:53:27.042Z,97550.61
2019-03-10T10:56:12.719Z,97544.65
2019-03-10T10:58:49.440Z,97542.02
2019-03-10T11:01:32.092Z,97521.84
2019-03-10T11:04:07.022Z,97535.56
2019-03-10T11:06:43.495Z,97450.67
2019-03-10T11:09:25.834Z,97379.78
2019-03-10T11:11:59.924Z,97543.96
2019-03-10T11:14:34.001Z,97546.66
2019-03-10T11:17:13.180Z,97542.78
2019-03-10T11:19:47.580Z,97516.30
2019-03-10T11:22:21.778Z,97521.44
2019-03-10T11:24:55.287Z,97499.53
2019-03-10T11:27:37.659Z,97508.06
2019-03-10T11:30:19.603Z,97488.77
2019-03-10T11:33:27.767Z,97465.54
2019-03-10T11:36:04.079Z,97473.87
2019-03-10T11:40:43.153Z,97450.63
2019-03-10T11:43:23.414Z,97472.55
2019-03-10T11:46:01.385Z,97467.05
2019-03-10T11:50:42.086Z,97459.79
2019-03-10T11:53:19.693Z,97445.73
2019-03-10T11:55:56.202Z,97444.96
2019-03-10T11:58:39.643Z,97432.95
2019-03-10T12:02:21.134Z,97433.31
2019-03-10T12:04:57.505Z,97379.30
2019-03-10T12:07:46.903Z,97410.36
2019-03-10T12:10:16.808Z,97402.72
2019-03-10T12:12:46.655Z,97396.88
2019-03-10T12:15:16.002Z,97389.23
2019-03-10T12:17:45.824Z,97375.42
2019-03-10T12:20:15.540Z,97288.63
2019-03-10T12:22:44.671Z,97374.78
2019-03-10T12:25:14.712Z,97363.03
2019-03-10T12:27:43.933Z,97346.11
2019-03-10T12:30:13.437Z,97297.65
2019-03-10T12:32:43.130Z,97358.27
2019-03-10T12:35:12.367Z,97345.47
2019-03-10T12:37:42.355Z,97343.81
2019-03-10T12:40:11.880Z,97324.66
2019-03-10T12:42:41.778Z,97282.66
2019-03-10T12:45:11.003Z,97334.30
2019-03-10T12:47:40.965Z,97337.44
2019-03-10T12:50:10.234Z,97332.34
2019-03-10T12:52:39.326Z,97326.04
2019-03-10T12:55:09.320Z,97381.34
2019-03-10T12:57:38.583Z,97326.41
2019-03-10T13:00:09.304Z,97337.61
2019-03-10T13:02:38.771Z,97317.86
2019-03-10T13:07:28.281Z,97300.94
2019-03-10T13:09:57.758Z,97286.58
2019-03-10T13:12:27.701Z,97306.30
2019-03-10T13:14:59.955Z,97308.14
2019-03-10T13:17:26.370Z,97315.09
2019-03-10T13:19:55.519Z,97306.02
2019-03-10T13:22:24.694Z,97304.59
2019-03-10T13:24:54.299Z,97298.90
2019-03-10T13:27:25.350Z,97314.66
2019-03-10T13:29:54.493Z,97327.75
2019-03-10T13:32:23.909Z,97337.66
2019-03-10T13:34:53.023Z,97329.61
2019-03-10T13:37:22.153Z,97337.08
2019-03-10T13:39:52.159Z,97332.15
2019-03-10T13:42:23.010Z,97331.31
2019-03-10T13:44:52.227Z,97260.72
2019-03-10T13:47:21.634Z,97267.25
2019-03-10T13:49:51.527Z,97297.43
2019-03-10T13:52:20.699Z,97296.94
2019-03-10T13:54:50.327Z,97147.08
2019-03-10T13:57:19.530Z,97288.09
2019-03-10T13:59:48.597Z,97293.55
2019-03-10T14:02:18.129Z,97285.34
2019-03-10T14:04:48.157Z,97212.02
2019-03-10T14:07:17.978Z,97276.10
2019-03-10T14:09:47.493Z,97268.34
2019-03-10T14:12:16.602Z,97284.36
2019-03-10T14:14:46.974Z,97269.97
2019-03-10T14:17:17.229Z,97217.52
2019-03-10T14:19:46.361Z,97221.16
2019-03-10T14:22:15.642Z,97228.07
2019-03-10T14:24:45.097Z,97220.81
2019-03-10T14:27:14.366Z,97232.98
2019-03-10T14:29:43.510Z,97180.94
2019-03-10T14:32:13.158Z,97241.00
2019-03-10T14:34:42.878Z,97233.89
2019-03-10T14:37:12.118Z,97221.18
2019-03-10T14:39:41.582Z,97226.34
2019-03-10T14:42:10.722Z,97231.00
2019-03-10T14:44:40.045Z,97258.34
2019-03-10T14:47:09.425Z,97275.22
2019-03-10T14:49:38.982Z,97263.46
2019-03-10T14:52:08.207Z,97267.77
2019-03-10T14:54:37.693Z,97319.61
2019-03-10T14:57:07.030Z,97258.11
2019-03-10T14:59:36.168Z,97204.30
2019-03-10T15:02:06.691Z,97270.81
2019-03-10T15:04:35.806Z,97250.67
2019-03-10T15:07:05.127Z,97286.91
2019-03-10T15:09:34.652Z,97258.97
2019-03-10T15:12:03.928Z,97268.43
2019-03-10T15:14:33.196Z,97267.04
2019-03-10T15:17:02.623Z,97271.42
2019-03-10T15:19:31.782Z,97287.34
2019-03-10T15:22:01.687Z,97273.56
2019-03-10T15:24:31.167Z,97284.09
2019-03-10T15:27:00.287Z,97297.19
2019-03-10T15:29:29.519Z,97304.59
2019-03-10T15:31:59.022Z,97375.28
2019-03-10T15:34:28.127Z,97321.92
2019-03-10T15:36:57.302Z,97275.69
2019-03-10T15:39:27.360Z,97249.45
2019-03-10T15:41:56.874Z,97272.85
2019-03-10T15:44:26.172Z,97273.86
2019-03-10T15:46:56.062Z,97256.82
2019-03-10T15:49:25.303Z,97282.35
2019-03-10T15:51:55.442Z,97265.75
2019-03-10T15:54:25.121Z,97248.81
2019-03-10T15:56:55.292Z,97268.58
2019-03-10T15:59:24.571Z,97267.08
2019-03-10T16:01:55.562Z,97281.53
2019-03-10T16:04:24.867Z,97228.09
2019-03-10T16:06:54.238Z,97319.17
2019-03-10T16:10:47.866Z,97252.42
2019-03-10T16:13:17.351Z,97256.69
2019-03-10T16:15:46.778Z,97313.05
2019-03-10T16:18:20.351Z,97291.65
2019-03-10T16:20:49.942Z,97313.92
2019-03-10T16:23:19.655Z,97300.33
2019-03-10T16:25:48.848Z,97333.05
2019-03-10T16:28:18.785Z,97227.76
2019-03-10T16:30:47.952Z,97352.34
2019-03-10T16:33:17.039Z,97361.50
2019-03-10T16:35:46.588Z,97370.81
2019-03-10T16:38:15.713Z,97345.53
2019-03-10T16:40:44.882Z,97373.45
2019-03-10T16:43:14.742Z,97363.02
2019-03-10T16:45:44.515Z,97391.72
2019-03-10T16:48:13.757Z,97378.03
2019-03-10T16:50:43.586Z,97413.86
2019-03-10T16:53:12.805Z,97408.34
2019-03-10T16:55:42.209Z,97402.58
2019-03-10T16:58:11.816Z,97411.23
2019-03-10T17:00:41.257Z,97417.53
2019-03-10T17:03:10.389Z,97425.25
2019-03-10T17:05:40.042Z,97431.75
2019-03-10T17:08:09.290Z,97409.98
2019-03-10T17:10:38.474Z,97449.50
2019-03-10T17:13:08.458Z,97449.77
2019-03-10T17:15:38.162Z,97463.70
2019-03-10T17:18:07.542Z,97454.00
2019-03-10T17:20:36.993Z,97438.41
2019-03-10T17:23:06.246Z,97462.03
2019-03-10T17:25:36.020Z,97451.56
2019-03-10T17:28:05.794Z,97492.23
2019-03-10T17:30:35.924Z,97477.96
2019-03-10T17:33:05.353Z,97501.98
2019-03-10T17:35:34.826Z,97412.44
2019-03-10T17:38:04.158Z,97493.69
2019-03-10T17:40:33.580Z,97466.66
2019-03-10T17:43:03.114Z,97515.66
2019-03-10T17:45:32.391Z,97534.12
2019-03-10T17:48:01.627Z,97529.93
2019-03-10T17:50:31.220Z,97550.41
2019-03-10T17:53:00.426Z,97543.17
2019-03-10T17:55:29.826Z,97550.52
2019-03-10T17:57:59.636Z,97560.16
2019-03-10T18:00:30.030Z,97561.02
2019-03-10T18:02:59.223Z,97558.33
2019-03-10T18:05:30.333Z,97565.21
2019-03-10T18:08:00.209Z,97566.36
2019-03-10T18:10:29.474Z,97583.53
2019-03-10T18:12:58.786Z,97627.48
2019-03-10T18:15:28.809Z,97597.30
2019-03-10T18:17:58.826Z,97622.67
2019-03-10T18:20:27.988Z,97602.75
2019-03-10T18:22:58.877Z,97595.06
2019-03-10T18:25:33.038Z,97623.44
2019-03-10T18:28:02.399Z,97584.36
2019-03-10T18:30:31.860Z,97626.34
2019-03-10T18:33:01.007Z,97635.06
2019-03-10T18:35:30.449Z,97632.28
2019-03-10T18:38:00.275Z,97656.88
2019-03-10T18:40:29.494Z,97639.08
2019-03-10T18:42:59.290Z,97677.05
2019-03-10T18:45:29.153Z,97673.02
2019-03-10T18:47:58.327Z,97679.57
2019-03-10T18:50:27.823Z,97694.06
2019-03-10T18:52:57.313Z,97684.08
2019-03-10T18:55:26.487Z,97642.56
2019-03-10T18:57:55.810Z,97708.00
2019-03-10T19:00:26.307Z,97756.77
2019-03-10T19:02:55.630Z,97745.64
2019-03-10T19:05:24.758Z,97770.47
2019-03-10T19:07:54.341Z,97755.56
2019-03-10T19:10:24.140Z,97795.63
2019-03-10T19:12:53.455Z,97803.38
2019-03-10T19:15:23.203Z,97828.52
2019-03-10T19:17:53.294Z,97873.13
2019-03-10T19:20:22.610Z,97929.31
2019-03-10T19:22:52.419Z,97940.58
2019-03-10T19:25:21.881Z,97947.16
2019-03-10T19:27:51.266Z,98028.68
2019-03-10T19:30:21.228Z,98030.62
2019-03-10T19:32:50.598Z,98049.05
2019-03-10T19:35:23.140Z,97998.20
2019-03-10T19:37:53.286Z,98091.42
2019-03-10T19:40:22.563Z,98112.80
2019-03-10T19:42:52.392Z,98138.24
2019-03-10T19:45:22.125Z,98154.06
2019-03-10T19:47:51.819Z,98139.91
2019-03-10T19:50:21.202Z,98190.75
2019-03-10T19:52:51.617Z,98187.65
2019-03-10T19:55:21.110Z,98190.12
2019-03-10T19:57:54.800Z,98210.91
2019-03-10T20:00:24.802Z,98225.02
2019-03-10T20:02:53.982Z,98231.64
2019-03-10T20:05:23.258Z,98235.30
2019-03-10T20:07:52.869Z,98261.52
2019-03-10T20:10:22.278Z,98270.95
2019-03-10T20:12:51.493Z,98293.31
2019-03-10T20:15:21.031Z,98296.78
2019-03-10T20:17:50.982Z,98307.90
2019-03-10T20:20:20.814Z,98315.74
2019-03-10T20:22:51.085Z,98343.42
2019-03-10T20:25:20.496Z,98317.84
2019-03-10T20:27:49.965Z,98332.78
2019-03-10T20:30:19.734Z,98338.05
2019-03-10T20:32:49.120Z,98342.05
2019-03-10T20:35:18.423Z,98360.05
2019-03-10T20:37:49.253Z,98214.53
2019-03-10T20:40:19.037Z,98372.58
2019-03-10T20:42:48.410Z,98364.02
2019-03-10T20:45:17.987Z,98376.55
2019-03-10T20:47:47.395Z,98381.14
2019-03-10T20:50:16.684Z,98386.87
2019-03-10T20:52:46.247Z,98397.43
2019-03-10T20:55:15.608Z,98402.17
2019-03-10T20:57:44.846Z,98399.02
2019-03-10T21:00:16.150Z,98413.26
2019-03-10T21:02:45.552Z,98380.92
2019-03-10T21:05:14.835Z,98417.88
2019-03-10T21:07:44.434Z,98428.91
2019-03-10T21:10:14.933Z,98437.00
2019-03-10T21:12:44.217Z,98440.53
2019-03-10T21:15:15.543Z,98450.42
2019-03-10T21:17:46.011Z,98447.35
2019-03-10T21:20:16.692Z,98457.21
2019-03-10T21:22:46.185Z,98482.72
2019-03-10T21:25:18.103Z,98449.84
2019-03-10T21:27:47.434Z,98454.39
2019-03-10T21:30:19.509Z,98425.22
2019-03-10T21:32:48.775Z,98465.86
2019-03-10T21:35:18.406Z,98474.19
2019-03-10T21:37:48.080Z,98472.88
2019-03-10T21:40:19.338Z,98489.15
2019-03-10T21:42:49.517Z,98488.89
2019-03-10T21:45:19.442Z,98502.98
2019-03-10T21:47:48.775Z,98511.31
2019-03-10T21:50:18.763Z,98520.17
2019-03-10T21:52:48.309Z,98529.87
2019-03-10T21:55:17.965Z,98532.48
2019-03-10T21:57:47.048Z,98522.22
2019-03-10T22:00:17.722Z,98515.64
2019-03-10T22:02:46.930Z,98535.45
2019-03-10T22:05:16.155Z,98520.40
2019-03-10T22:07:46.689Z,98524.06
2019-03-10T22:10:26.321Z,98540.23
2019-03-10T22:12:46.613Z,98544.22
2019-03-10T22:15:16.207Z,98549.02
2019-03-10T22:17:46.025Z,98449.90
2019-03-10T22:20:15.250Z,98564.47
2019-03-10T22:22:49.253Z,98513.97
2019-03-10T22:25:16.986Z,98560.63
2019-03-10T22:27:46.574Z,98557.09
2019-03-10T22:35:41.225Z,98580.55
2019-03-10T22:38:10.798Z,98584.30
2019-03-10T22:40:41.551Z,98597.61
2019-03-10T22:43:10.658Z,98594.80
2019-03-10T22:45:41.459Z,98579.73
2019-03-10T22:48:10.672Z,98627.63
2019-03-10T22:50:40.305Z,98598.59
2019-03-10T22:53:10.538Z,98588.02
2019-03-10T22:55:39.803Z,98610.55
2019-03-10T22:58:09.441Z,98609.47
2019-03-10T23:00:45.428Z,98621.37
2019-03-10T23:03:15.628Z,98617.78
2019-03-10T23:05:45.450Z,98642.41
2019-03-10T23:08:14.603Z,98650.88
2019-03-10T23:10:45.010Z,98623.25
2019-03-10T23:13:15.022Z,98649.64
2019-03-10T23:15:44.582Z,98648.42
2019-03-10T23:18:13.959Z,98668.73
2019-03-10T23:20:43.454Z,98660.86
2019-03-10T23:23:12.723Z,98655.84
2019-03-10T23:25:41.857Z,98657.48
2019-03-10T23:28:11.946Z,98662.22
2019-03-10T23:30:41.924Z,98629.30
2019-03-10T23:33:12.001Z,98656.08
2019-03-10T23:35:41.459Z,98652.73
2019-03-10T23:38:11.497Z,98669.98
2019-03-10T23:40:41.227Z,98680.11
2019-03-10T23:43:11.342Z,98676.45
2019-03-10T23:45:41.081Z,98670.59
2019-03-10T23:48:10.986Z,98671.79
2019-03-10T23:50:40.917Z,98675.14
2019-03-10T23:53:11.630Z,98686.78
2019-03-10T23:55:41.314Z,98670.11
2019-03-10T23:58:10.782Z,98683.95
